sensor_id;sensor_type;location;lat;lon;timestamp;temperature;humidity
79439;DHT22;68889;48.232;10.110;2023-07-13T00:02:04;18.30;99.90
79439;DHT22;68889;48.232;10.110;2023-07-13T00:04:30;18.30;99.90
79439;DHT22;68889;48.232;10.110;2023-07-13T00:06:55;18.30;99.90
79439;DHT22;68889;48.232;10.110;2023-07-13T00:09:21;18.40;99.90
79439;DHT22;68889;48.232;10.110;2023-07-13T00:11:50;18.40;99.90
79439;DHT22;68889;48.232;10.110;2023-07-13T00:14:15;18.50;99.90
79439;DHT22;68889;48.232;10.110;2023-07-13T00:16:41;18.50;99.90
79439;DHT22;68889;48.232;10.110;2023-07-13T00:19:09;18.50;99.90
79439;DHT22;68889;48.232;10.110;2023-07-13T00:21:34;18.50;99.90
79439;DHT22;68889;48.232;10.110;2023-07-13T00:24:00;18.50;99.90
79439;DHT22;68889;48.232;10.110;2023-07-13T00:26:26;18.40;99.90
79439;DHT22;68889;48.232;10.110;2023-07-13T00:28:51;18.40;99.90
79439;DHT22;68889;48.232;10.110;2023-07-13T00:31:17;18.40;99.90
79439;DHT22;68889;48.232;10.110;2023-07-13T00:33:43;18.40;99.90
79439;DHT22;68889;48.232;10.110;2023-07-13T00:36:08;18.40;99.90
79439;DHT22;68889;48.232;10.110;2023-07-13T00:38:35;18.40;99.90
79439;DHT22;68889;48.232;10.110;2023-07-13T00:41:01;18.40;99.90
79439;DHT22;68889;48.232;10.110;2023-07-13T00:43:27;18.40;99.90
79439;DHT22;68889;48.232;10.110;2023-07-13T00:48:20;18.30;99.90
79439;DHT22;68889;48.232;10.110;2023-07-13T00:50:46;18.30;99.90
79439;DHT22;68889;48.232;10.110;2023-07-13T00:53:13;18.30;99.90
79439;DHT22;68889;48.232;10.110;2023-07-13T00:55:39;18.20;99.90
79439;DHT22;68889;48.232;10.110;2023-07-13T00:58:05;18.10;99.90
79439;DHT22;68889;48.232;10.110;2023-07-13T01:00:32;18.10;99.90
79439;DHT22;68889;48.232;10.110;2023-07-13T01:02:58;18.00;99.90
79439;DHT22;68889;48.232;10.110;2023-07-13T01:05:24;17.90;99.90
79439;DHT22;68889;48.232;10.110;2023-07-13T01:07:50;17.80;98.30
79439;DHT22;68889;48.232;10.110;2023-07-13T01:10:17;17.70;98.40
79439;DHT22;68889;48.232;10.110;2023-07-13T01:12:42;17.60;99.90
79439;DHT22;68889;48.232;10.110;2023-07-13T01:17:52;17.40;99.90
79439;DHT22;68889;48.232;10.110;2023-07-13T01:20:18;17.40;99.90
79439;DHT22;68889;48.232;10.110;2023-07-13T01:22:43;17.20;99.90
79439;DHT22;68889;48.232;10.110;2023-07-13T01:25:09;17.20;99.90
79439;DHT22;68889;48.232;10.110;2023-07-13T01:27:34;17.20;99.90
79439;DHT22;68889;48.232;10.110;2023-07-13T01:30:00;17.20;99.90
79439;DHT22;68889;48.232;10.110;2023-07-13T01:32:29;17.20;99.90
79439;DHT22;68889;48.232;10.110;2023-07-13T01:34:56;17.20;99.90
79439;DHT22;68889;48.232;10.110;2023-07-13T01:37:25;17.20;99.90
79439;DHT22;68889;48.232;10.110;2023-07-13T01:39:51;17.20;99.90
79439;DHT22;68889;48.232;10.110;2023-07-13T01:42:17;17.20;99.90
79439;DHT22;68889;48.232;10.110;2023-07-13T01:44:42;17.30;99.90
79439;DHT22;68889;48.232;10.110;2023-07-13T01:47:08;17.30;99.90
79439;DHT22;68889;48.232;10.110;2023-07-13T01:49:34;17.30;99.90
79439;DHT22;68889;48.232;10.110;2023-07-13T01:51:59;17.30;99.90
79439;DHT22;68889;48.232;10.110;2023-07-13T01:54:24;17.20;99.90
79439;DHT22;68889;48.232;10.110;2023-07-13T01:56:50;17.10;99.90
79439;DHT22;68889;48.232;10.110;2023-07-13T01:59:15;17.10;99.90
79439;DHT22;68889;48.232;10.110;2023-07-13T02:01:41;17.10;99.90
79439;DHT22;68889;48.232;10.110;2023-07-13T02:04:06;17.00;99.90
79439;DHT22;68889;48.232;10.110;2023-07-13T02:06:32;17.10;99.90
79439;DHT22;68889;48.232;10.110;2023-07-13T02:08:57;17.10;99.90
79439;DHT22;68889;48.232;10.110;2023-07-13T02:11:23;17.00;99.90
79439;DHT22;68889;48.232;10.110;2023-07-13T02:13:50;17.00;99.90
79439;DHT22;68889;48.232;10.110;2023-07-13T02:16:15;17.10;99.90
79439;DHT22;68889;48.232;10.110;2023-07-13T02:18:41;17.10;99.90
79439;DHT22;68889;48.232;10.110;2023-07-13T02:21:06;17.10;99.90
79439;DHT22;68889;48.232;10.110;2023-07-13T02:23:32;17.20;99.90
79439;DHT22;68889;48.232;10.110;2023-07-13T02:25:58;17.20;99.90
79439;DHT22;68889;48.232;10.110;2023-07-13T02:28:24;17.20;99.90
79439;DHT22;68889;48.232;10.110;2023-07-13T02:30:49;17.20;99.90
79439;DHT22;68889;48.232;10.110;2023-07-13T02:33:15;17.10;99.90
79439;DHT22;68889;48.232;10.110;2023-07-13T02:35:40;17.00;99.90
79439;DHT22;68889;48.232;10.110;2023-07-13T02:38:06;17.00;99.90
79439;DHT22;68889;48.232;10.110;2023-07-13T02:40:31;16.90;99.90
79439;DHT22;68889;48.232;10.110;2023-07-13T02:42:59;16.80;99.90
79439;DHT22;68889;48.232;10.110;2023-07-13T02:45:25;16.80;99.90
79439;DHT22;68889;48.232;10.110;2023-07-13T02:47:50;16.70;99.90
79439;DHT22;68889;48.232;10.110;2023-07-13T02:50:16;16.70;99.90
79439;DHT22;68889;48.232;10.110;2023-07-13T02:52:41;16.60;99.90
79439;DHT22;68889;48.232;10.110;2023-07-13T02:55:07;16.50;99.90
79439;DHT22;68889;48.232;10.110;2023-07-13T02:57:32;16.40;99.90
79439;DHT22;68889;48.232;10.110;2023-07-13T02:59:59;16.40;99.90
79439;DHT22;68889;48.232;10.110;2023-07-13T03:02:24;16.40;99.90
79439;DHT22;68889;48.232;10.110;2023-07-13T03:04:50;16.30;99.90
79439;DHT22;68889;48.232;10.110;2023-07-13T03:07:15;16.30;99.90
79439;DHT22;68889;48.232;10.110;2023-07-13T03:09:41;16.20;99.90
79439;DHT22;68889;48.232;10.110;2023-07-13T03:12:06;16.30;99.90
79439;DHT22;68889;48.232;10.110;2023-07-13T03:14:32;16.20;99.90
79439;DHT22;68889;48.232;10.110;2023-07-13T03:16:57;16.20;99.90
79439;DHT22;68889;48.232;10.110;2023-07-13T03:19:23;16.20;99.90
79439;DHT22;68889;48.232;10.110;2023-07-13T03:21:49;16.20;99.90
79439;DHT22;68889;48.232;10.110;2023-07-13T03:24:14;16.20;99.90
79439;DHT22;68889;48.232;10.110;2023-07-13T03:26:40;16.20;99.90
79439;DHT22;68889;48.232;10.110;2023-07-13T03:29:06;16.20;99.90
79439;DHT22;68889;48.232;10.110;2023-07-13T03:31:33;16.20;99.90
79439;DHT22;68889;48.232;10.110;2023-07-13T03:33:59;16.20;99.90
79439;DHT22;68889;48.232;10.110;2023-07-13T03:36:26;16.20;99.90
79439;DHT22;68889;48.232;10.110;2023-07-13T03:38:53;16.20;99.90
79439;DHT22;68889;48.232;10.110;2023-07-13T03:41:19;16.30;99.90
79439;DHT22;68889;48.232;10.110;2023-07-13T03:43:44;16.30;99.90
79439;DHT22;68889;48.232;10.110;2023-07-13T03:46:10;16.30;99.90
79439;DHT22;68889;48.232;10.110;2023-07-13T03:48:35;16.30;99.90
79439;DHT22;68889;48.232;10.110;2023-07-13T03:51:01;16.30;99.90
79439;DHT22;68889;48.232;10.110;2023-07-13T03:53:26;16.30;99.90
79439;DHT22;68889;48.232;10.110;2023-07-13T03:55:52;16.30;99.90
79439;DHT22;68889;48.232;10.110;2023-07-13T03:58:28;16.40;99.90
79439;DHT22;68889;48.232;10.110;2023-07-13T04:00:55;16.40;99.90
79439;DHT22;68889;48.232;10.110;2023-07-13T04:03:20;16.40;99.90
79439;DHT22;68889;48.232;10.110;2023-07-13T04:05:46;16.40;99.90
79439;DHT22;68889;48.232;10.110;2023-07-13T04:08:12;16.40;99.90
79439;DHT22;68889;48.232;10.110;2023-07-13T04:10:37;16.40;99.90
79439;DHT22;68889;48.232;10.110;2023-07-13T04:13:04;16.40;99.90
79439;DHT22;68889;48.232;10.110;2023-07-13T04:15:30;16.40;99.90
79439;DHT22;68889;48.232;10.110;2023-07-13T04:17:56;16.40;99.90
79439;DHT22;68889;48.232;10.110;2023-07-13T04:20:22;16.40;99.90
79439;DHT22;68889;48.232;10.110;2023-07-13T04:22:47;16.40;99.90
79439;DHT22;68889;48.232;10.110;2023-07-13T04:25:13;16.50;99.90
79439;DHT22;68889;48.232;10.110;2023-07-13T04:27:40;16.50;99.90
79439;DHT22;68889;48.232;10.110;2023-07-13T04:30:06;16.50;99.90
79439;DHT22;68889;48.232;10.110;2023-07-13T04:32:32;16.50;99.90
79439;DHT22;68889;48.232;10.110;2023-07-13T04:34:58;16.50;99.90
79439;DHT22;68889;48.232;10.110;2023-07-13T04:37:24;16.60;99.90
79439;DHT22;68889;48.232;10.110;2023-07-13T04:39:50;16.60;99.90
79439;DHT22;68889;48.232;10.110;2023-07-13T04:42:15;16.60;99.90
79439;DHT22;68889;48.232;10.110;2023-07-13T04:44:41;16.60;99.90
79439;DHT22;68889;48.232;10.110;2023-07-13T04:47:07;16.50;99.90
79439;DHT22;68889;48.232;10.110;2023-07-13T04:49:32;16.50;99.90
79439;DHT22;68889;48.232;10.110;2023-07-13T04:51:58;16.50;99.90
79439;DHT22;68889;48.232;10.110;2023-07-13T04:54:23;16.50;99.90
79439;DHT22;68889;48.232;10.110;2023-07-13T04:56:49;16.60;99.90
79439;DHT22;68889;48.232;10.110;2023-07-13T04:59:14;16.60;99.90
79439;DHT22;68889;48.232;10.110;2023-07-13T05:01:39;16.60;99.90
79439;DHT22;68889;48.232;10.110;2023-07-13T05:04:06;16.60;99.90
79439;DHT22;68889;48.232;10.110;2023-07-13T05:06:31;16.60;99.90
79439;DHT22;68889;48.232;10.110;2023-07-13T05:08:56;16.60;99.90
79439;DHT22;68889;48.232;10.110;2023-07-13T05:11:22;16.70;99.90
79439;DHT22;68889;48.232;10.110;2023-07-13T05:13:47;16.60;99.90
79439;DHT22;68889;48.232;10.110;2023-07-13T05:16:13;16.70;99.90
79439;DHT22;68889;48.232;10.110;2023-07-13T05:18:38;16.70;99.90
79439;DHT22;68889;48.232;10.110;2023-07-13T05:21:05;16.70;99.90
79439;DHT22;68889;48.232;10.110;2023-07-13T05:23:31;16.60;99.90
79439;DHT22;68889;48.232;10.110;2023-07-13T05:25:57;16.60;99.90
79439;DHT22;68889;48.232;10.110;2023-07-13T05:28:23;16.60;99.90
79439;DHT22;68889;48.232;10.110;2023-07-13T05:30:49;16.70;99.90
79439;DHT22;68889;48.232;10.110;2023-07-13T05:33:14;16.70;99.90
79439;DHT22;68889;48.232;10.110;2023-07-13T05:35:40;16.70;99.90
79439;DHT22;68889;48.232;10.110;2023-07-13T05:38:05;16.80;99.90
79439;DHT22;68889;48.232;10.110;2023-07-13T05:40:31;16.80;99.90
79439;DHT22;68889;48.232;10.110;2023-07-13T05:42:57;16.90;99.90
79439;DHT22;68889;48.232;10.110;2023-07-13T05:45:22;17.00;99.90
79439;DHT22;68889;48.232;10.110;2023-07-13T05:47:48;17.10;99.90
79439;DHT22;68889;48.232;10.110;2023-07-13T05:50:13;17.10;99.90
79439;DHT22;68889;48.232;10.110;2023-07-13T05:52:39;17.20;99.90
79439;DHT22;68889;48.232;10.110;2023-07-13T05:55:04;17.20;99.90
79439;DHT22;68889;48.232;10.110;2023-07-13T05:57:30;17.30;99.90
79439;DHT22;68889;48.232;10.110;2023-07-13T05:59:55;17.30;99.90
79439;DHT22;68889;48.232;10.110;2023-07-13T06:02:21;17.40;99.90
79439;DHT22;68889;48.232;10.110;2023-07-13T06:04:46;17.50;99.90
79439;DHT22;68889;48.232;10.110;2023-07-13T06:07:12;17.60;99.60
79439;DHT22;68889;48.232;10.110;2023-07-13T06:09:37;17.60;99.50
79439;DHT22;68889;48.232;10.110;2023-07-13T06:12:04;17.80;99.40
79439;DHT22;68889;48.232;10.110;2023-07-13T06:14:29;17.90;99.90
79439;DHT22;68889;48.232;10.110;2023-07-13T06:16:55;17.90;99.90
79439;DHT22;68889;48.232;10.110;2023-07-13T06:19:20;18.00;99.40
79439;DHT22;68889;48.232;10.110;2023-07-13T06:21:46;18.10;98.30
79439;DHT22;68889;48.232;10.110;2023-07-13T06:24:11;18.20;98.60
79439;DHT22;68889;48.232;10.110;2023-07-13T06:26:37;18.40;98.10
79439;DHT22;68889;48.232;10.110;2023-07-13T06:29:02;18.60;99.30
79439;DHT22;68889;48.232;10.110;2023-07-13T06:31:28;18.70;98.30
79439;DHT22;68889;48.232;10.110;2023-07-13T06:33:53;18.90;97.20
79439;DHT22;68889;48.232;10.110;2023-07-13T06:36:19;19.10;96.40
79439;DHT22;68889;48.232;10.110;2023-07-13T06:38:44;19.10;90.90
79439;DHT22;68889;48.232;10.110;2023-07-13T06:41:10;19.20;94.80
79439;DHT22;68889;48.232;10.110;2023-07-13T06:43:35;19.20;92.50
79439;DHT22;68889;48.232;10.110;2023-07-13T06:46:01;19.20;85.50
79439;DHT22;68889;48.232;10.110;2023-07-13T06:48:27;19.20;87.50
79439;DHT22;68889;48.232;10.110;2023-07-13T06:50:53;19.30;87.90
79439;DHT22;68889;48.232;10.110;2023-07-13T06:53:19;19.40;84.70
79439;DHT22;68889;48.232;10.110;2023-07-13T06:55:44;19.50;89.40
79439;DHT22;68889;48.232;10.110;2023-07-13T06:58:10;19.60;89.80
79439;DHT22;68889;48.232;10.110;2023-07-13T07:00:36;19.60;87.00
79439;DHT22;68889;48.232;10.110;2023-07-13T07:03:01;19.60;86.70
79439;DHT22;68889;48.232;10.110;2023-07-13T07:05:27;19.60;89.30
79439;DHT22;68889;48.232;10.110;2023-07-13T07:07:53;19.50;93.50
79439;DHT22;68889;48.232;10.110;2023-07-13T07:10:19;19.50;86.70
79439;DHT22;68889;48.232;10.110;2023-07-13T07:12:45;19.50;91.60
79439;DHT22;68889;48.232;10.110;2023-07-13T07:15:11;19.50;92.90
79439;DHT22;68889;48.232;10.110;2023-07-13T07:17:36;19.60;91.40
79439;DHT22;68889;48.232;10.110;2023-07-13T07:20:02;19.60;91.40
79439;DHT22;68889;48.232;10.110;2023-07-13T07:22:28;19.70;82.30
79439;DHT22;68889;48.232;10.110;2023-07-13T07:24:55;19.80;87.40
79439;DHT22;68889;48.232;10.110;2023-07-13T07:27:21;19.70;80.80
79439;DHT22;68889;48.232;10.110;2023-07-13T07:29:46;19.80;86.20
79439;DHT22;68889;48.232;10.110;2023-07-13T07:32:12;19.80;88.80
79439;DHT22;68889;48.232;10.110;2023-07-13T07:34:37;19.70;92.50
79439;DHT22;68889;48.232;10.110;2023-07-13T07:37:03;19.60;92.20
79439;DHT22;68889;48.232;10.110;2023-07-13T07:39:29;19.60;92.70
79439;DHT22;68889;48.232;10.110;2023-07-13T07:41:54;19.60;94.30
79439;DHT22;68889;48.232;10.110;2023-07-13T07:44:19;19.70;92.90
79439;DHT22;68889;48.232;10.110;2023-07-13T07:46:45;19.80;90.40
79439;DHT22;68889;48.232;10.110;2023-07-13T07:49:10;19.90;82.20
79439;DHT22;68889;48.232;10.110;2023-07-13T07:51:36;20.00;85.70
79439;DHT22;68889;48.232;10.110;2023-07-13T07:54:02;20.00;80.30
79439;DHT22;68889;48.232;10.110;2023-07-13T07:56:28;20.10;77.50
79439;DHT22;68889;48.232;10.110;2023-07-13T07:58:53;20.10;82.90
79439;DHT22;68889;48.232;10.110;2023-07-13T08:01:19;20.00;80.40
79439;DHT22;68889;48.232;10.110;2023-07-13T08:03:44;20.10;85.70
79439;DHT22;68889;48.232;10.110;2023-07-13T08:06:10;20.10;86.70
79439;DHT22;68889;48.232;10.110;2023-07-13T08:08:35;20.10;85.00
79439;DHT22;68889;48.232;10.110;2023-07-13T08:11:07;20.00;86.30
79439;DHT22;68889;48.232;10.110;2023-07-13T08:13:33;19.90;82.30
79439;DHT22;68889;48.232;10.110;2023-07-13T08:15:59;20.00;85.20
79439;DHT22;68889;48.232;10.110;2023-07-13T08:18:24;20.00;84.00
79439;DHT22;68889;48.232;10.110;2023-07-13T08:20:50;20.20;78.60
79439;DHT22;68889;48.232;10.110;2023-07-13T08:23:15;20.40;81.10
79439;DHT22;68889;48.232;10.110;2023-07-13T08:25:42;20.50;82.00
79439;DHT22;68889;48.232;10.110;2023-07-13T08:28:07;20.60;78.10
79439;DHT22;68889;48.232;10.110;2023-07-13T08:30:33;20.70;84.70
79439;DHT22;68889;48.232;10.110;2023-07-13T08:32:58;20.60;81.60
79439;DHT22;68889;48.232;10.110;2023-07-13T08:35:24;20.80;76.00
79439;DHT22;68889;48.232;10.110;2023-07-13T08:37:51;20.90;77.80
79439;DHT22;68889;48.232;10.110;2023-07-13T08:40:16;21.10;70.70
79439;DHT22;68889;48.232;10.110;2023-07-13T08:42:46;21.30;71.60
79439;DHT22;68889;48.232;10.110;2023-07-13T08:48:03;21.30;73.20
79439;DHT22;68889;48.232;10.110;2023-07-13T08:50:34;21.40;76.20
79439;DHT22;68889;48.232;10.110;2023-07-13T08:53:00;21.40;77.50
79439;DHT22;68889;48.232;10.110;2023-07-13T08:55:29;21.20;75.50
79439;DHT22;68889;48.232;10.110;2023-07-13T08:58:12;21.20;75.50
79439;DHT22;68889;48.232;10.110;2023-07-13T09:00:42;21.20;73.10
79439;DHT22;68889;48.232;10.110;2023-07-13T09:03:12;21.20;72.20
79439;DHT22;68889;48.232;10.110;2023-07-13T09:05:41;21.10;76.00
79439;DHT22;68889;48.232;10.110;2023-07-13T09:16:20;21.60;73.00
79439;DHT22;68889;48.232;10.110;2023-07-13T09:18:47;21.60;72.90
79439;DHT22;68889;48.232;10.110;2023-07-13T09:23:43;21.70;74.30
79439;DHT22;68889;48.232;10.110;2023-07-13T09:26:22;21.80;72.70
79439;DHT22;68889;48.232;10.110;2023-07-13T09:31:18;21.70;71.50
79439;DHT22;68889;48.232;10.110;2023-07-13T09:33:47;21.90;73.60
79439;DHT22;68889;48.232;10.110;2023-07-13T09:36:20;22.00;72.70
79439;DHT22;68889;48.232;10.110;2023-07-13T09:38:49;22.10;71.10
79439;DHT22;68889;48.232;10.110;2023-07-13T09:41:23;22.30;68.40
79439;DHT22;68889;48.232;10.110;2023-07-13T09:44:01;22.50;71.50
79439;DHT22;68889;48.232;10.110;2023-07-13T09:46:26;22.70;69.30
79439;DHT22;68889;48.232;10.110;2023-07-13T09:48:52;22.50;70.80
79439;DHT22;68889;48.232;10.110;2023-07-13T09:51:17;22.30;69.10
79439;DHT22;68889;48.232;10.110;2023-07-13T09:53:43;22.40;72.10
79439;DHT22;68889;48.232;10.110;2023-07-13T09:56:22;22.90;70.20
79439;DHT22;68889;48.232;10.110;2023-07-13T09:58:48;23.00;67.10
79439;DHT22;68889;48.232;10.110;2023-07-13T10:01:14;23.10;69.90
79439;DHT22;68889;48.232;10.110;2023-07-13T10:03:51;22.90;65.90
79439;DHT22;68889;48.232;10.110;2023-07-13T10:06:18;23.10;71.90
79439;DHT22;68889;48.232;10.110;2023-07-13T10:08:44;23.00;66.60
79439;DHT22;68889;48.232;10.110;2023-07-13T10:13:36;22.80;68.70
79439;DHT22;68889;48.232;10.110;2023-07-13T10:16:02;23.30;67.40
79439;DHT22;68889;48.232;10.110;2023-07-13T10:18:31;23.80;70.70
79439;DHT22;68889;48.232;10.110;2023-07-13T10:21:10;24.10;66.50
79439;DHT22;68889;48.232;10.110;2023-07-13T10:23:36;24.30;64.60
79439;DHT22;68889;48.232;10.110;2023-07-13T10:26:02;24.40;68.30
79439;DHT22;68889;48.232;10.110;2023-07-13T10:28:30;24.60;65.00
79439;DHT22;68889;48.232;10.110;2023-07-13T10:30:56;24.90;62.80
79439;DHT22;68889;48.232;10.110;2023-07-13T10:33:23;25.10;68.50
79439;DHT22;68889;48.232;10.110;2023-07-13T10:35:50;25.50;68.50
79439;DHT22;68889;48.232;10.110;2023-07-13T10:38:18;25.50;64.30
79439;DHT22;68889;48.232;10.110;2023-07-13T10:40:49;25.60;65.80
79439;DHT22;68889;48.232;10.110;2023-07-13T10:43:18;25.50;62.80
79439;DHT22;68889;48.232;10.110;2023-07-13T10:45:45;25.10;65.80
79439;DHT22;68889;48.232;10.110;2023-07-13T10:48:14;24.90;65.70
79439;DHT22;68889;48.232;10.110;2023-07-13T10:50:40;25.00;64.70
79439;DHT22;68889;48.232;10.110;2023-07-13T10:53:20;24.70;63.20
79439;DHT22;68889;48.232;10.110;2023-07-13T11:00:57;25.60;61.30
79439;DHT22;68889;48.232;10.110;2023-07-13T11:03:23;26.00;60.80
79439;DHT22;68889;48.232;10.110;2023-07-13T11:06:03;25.80;57.00
79439;DHT22;68889;48.232;10.110;2023-07-13T11:10:56;25.80;65.10
79439;DHT22;68889;48.232;10.110;2023-07-13T11:16:12;25.50;63.80
79439;DHT22;68889;48.232;10.110;2023-07-13T11:18:38;25.70;59.80
79439;DHT22;68889;48.232;10.110;2023-07-13T11:21:14;25.40;64.90
79439;DHT22;68889;48.232;10.110;2023-07-13T11:23:43;25.30;60.30
79439;DHT22;68889;48.232;10.110;2023-07-13T11:28:56;25.40;59.10
79439;DHT22;68889;48.232;10.110;2023-07-13T11:31:22;25.70;61.00
79439;DHT22;68889;48.232;10.110;2023-07-13T11:33:56;25.70;67.50
79439;DHT22;68889;48.232;10.110;2023-07-13T11:36:23;25.70;65.30
79439;DHT22;68889;48.232;10.110;2023-07-13T11:38:56;26.00;56.40
79439;DHT22;68889;48.232;10.110;2023-07-13T11:41:25;26.20;59.30
79439;DHT22;68889;48.232;10.110;2023-07-13T11:43:55;26.20;56.50
79439;DHT22;68889;48.232;10.110;2023-07-13T11:46:22;26.50;59.60
79439;DHT22;68889;48.232;10.110;2023-07-13T11:48:48;26.50;55.60
79439;DHT22;68889;48.232;10.110;2023-07-13T11:51:17;26.50;54.10
79439;DHT22;68889;48.232;10.110;2023-07-13T11:53:45;26.60;54.30
79439;DHT22;68889;48.232;10.110;2023-07-13T11:56:11;27.10;56.40
79439;DHT22;68889;48.232;10.110;2023-07-13T11:58:36;27.60;56.00
79439;DHT22;68889;48.232;10.110;2023-07-13T12:01:02;27.60;54.70
79439;DHT22;68889;48.232;10.110;2023-07-13T12:03:30;27.30;55.00
79439;DHT22;68889;48.232;10.110;2023-07-13T12:06:01;26.90;55.00
79439;DHT22;68889;48.232;10.110;2023-07-13T12:08:27;26.60;57.40
79439;DHT22;68889;48.232;10.110;2023-07-13T12:10:56;26.90;61.40
79439;DHT22;68889;48.232;10.110;2023-07-13T12:13:22;27.20;55.00
79439;DHT22;68889;48.232;10.110;2023-07-13T12:15:47;27.40;55.10
79439;DHT22;68889;48.232;10.110;2023-07-13T12:18:14;27.30;55.50
79439;DHT22;68889;48.232;10.110;2023-07-13T12:20:41;27.00;56.60
79439;DHT22;68889;48.232;10.110;2023-07-13T12:26:03;27.00;58.50
79439;DHT22;68889;48.232;10.110;2023-07-13T12:28:33;27.30;55.60
79439;DHT22;68889;48.232;10.110;2023-07-13T12:31:01;27.40;56.90
79439;DHT22;68889;48.232;10.110;2023-07-13T12:33:30;27.70;54.10
79439;DHT22;68889;48.232;10.110;2023-07-13T12:35:58;27.90;56.20
79439;DHT22;68889;48.232;10.110;2023-07-13T12:38:25;27.80;54.60
79439;DHT22;68889;48.232;10.110;2023-07-13T12:40:51;27.50;57.30
79439;DHT22;68889;48.232;10.110;2023-07-13T12:43:17;27.80;53.20
79439;DHT22;68889;48.232;10.110;2023-07-13T12:46:02;27.30;54.60
79439;DHT22;68889;48.232;10.110;2023-07-13T12:48:28;27.20;56.60
79439;DHT22;68889;48.232;10.110;2023-07-13T12:50:54;27.10;53.00
79439;DHT22;68889;48.232;10.110;2023-07-13T12:53:21;26.50;58.50
79439;DHT22;68889;48.232;10.110;2023-07-13T12:55:51;26.90;59.40
79439;DHT22;68889;48.232;10.110;2023-07-13T12:58:22;27.30;57.60
79439;DHT22;68889;48.232;10.110;2023-07-13T13:00:50;26.90;54.90
79439;DHT22;68889;48.232;10.110;2023-07-13T13:05:48;27.10;57.90
79439;DHT22;68889;48.232;10.110;2023-07-13T13:08:14;27.50;59.30
79439;DHT22;68889;48.232;10.110;2023-07-13T13:10:40;27.70;57.10
79439;DHT22;68889;48.232;10.110;2023-07-13T13:13:05;27.70;57.60
79439;DHT22;68889;48.232;10.110;2023-07-13T13:15:31;27.60;57.70
79439;DHT22;68889;48.232;10.110;2023-07-13T13:17:58;27.50;56.90
79439;DHT22;68889;48.232;10.110;2023-07-13T13:20:24;27.30;55.80
79439;DHT22;68889;48.232;10.110;2023-07-13T13:22:51;27.30;58.00
79439;DHT22;68889;48.232;10.110;2023-07-13T13:25:16;27.20;55.80
79439;DHT22;68889;48.232;10.110;2023-07-13T13:27:43;27.20;59.30
79439;DHT22;68889;48.232;10.110;2023-07-13T13:30:13;27.40;54.30
79439;DHT22;68889;48.232;10.110;2023-07-13T13:32:44;27.90;59.40
79439;DHT22;68889;48.232;10.110;2023-07-13T13:35:17;28.50;57.90
79439;DHT22;68889;48.232;10.110;2023-07-13T13:37:43;28.60;55.60
79439;DHT22;68889;48.232;10.110;2023-07-13T13:40:15;28.70;53.70
79439;DHT22;68889;48.232;10.110;2023-07-13T13:42:41;28.80;56.70
79439;DHT22;68889;48.232;10.110;2023-07-13T13:45:08;29.20;53.70
79439;DHT22;68889;48.232;10.110;2023-07-13T13:47:34;29.60;52.80
79439;DHT22;68889;48.232;10.110;2023-07-13T13:50:01;29.70;57.30
79439;DHT22;68889;48.232;10.110;2023-07-13T13:52:27;29.80;55.60
79439;DHT22;68889;48.232;10.110;2023-07-13T13:54:53;30.00;55.00
79439;DHT22;68889;48.232;10.110;2023-07-13T13:57:24;29.90;57.10
79439;DHT22;68889;48.232;10.110;2023-07-13T13:59:51;29.30;52.70
79439;DHT22;68889;48.232;10.110;2023-07-13T14:04:46;29.00;50.60
79439;DHT22;68889;48.232;10.110;2023-07-13T14:07:12;28.90;52.00
79439;DHT22;68889;48.232;10.110;2023-07-13T14:09:37;28.70;55.60
79439;DHT22;68889;48.232;10.110;2023-07-13T14:12:03;29.00;55.20
79439;DHT22;68889;48.232;10.110;2023-07-13T14:14:30;29.10;56.60
79439;DHT22;68889;48.232;10.110;2023-07-13T14:16:55;28.90;56.80
79439;DHT22;68889;48.232;10.110;2023-07-13T14:19:22;28.50;56.40
79439;DHT22;68889;48.232;10.110;2023-07-13T14:21:48;28.30;53.80
79439;DHT22;68889;48.232;10.110;2023-07-13T14:24:14;27.60;54.70
79439;DHT22;68889;48.232;10.110;2023-07-13T14:26:40;27.10;58.10
79439;DHT22;68889;48.232;10.110;2023-07-13T14:29:13;26.80;57.20
79439;DHT22;68889;48.232;10.110;2023-07-13T14:31:40;26.40;56.30
79439;DHT22;68889;48.232;10.110;2023-07-13T14:34:07;26.10;59.00
79439;DHT22;68889;48.232;10.110;2023-07-13T14:36:33;26.00;62.40
79439;DHT22;68889;48.232;10.110;2023-07-13T14:39:00;26.00;58.50
79439;DHT22;68889;48.232;10.110;2023-07-13T14:41:26;26.00;57.50
79439;DHT22;68889;48.232;10.110;2023-07-13T14:43:52;25.90;59.40
79439;DHT22;68889;48.232;10.110;2023-07-13T14:46:31;26.00;59.30
79439;DHT22;68889;48.232;10.110;2023-07-13T14:51:29;26.00;56.80
79439;DHT22;68889;48.232;10.110;2023-07-13T14:53:54;26.00;62.00
79439;DHT22;68889;48.232;10.110;2023-07-13T14:56:19;25.80;60.80
79439;DHT22;68889;48.232;10.110;2023-07-13T14:58:45;25.70;62.80
79439;DHT22;68889;48.232;10.110;2023-07-13T15:01:12;25.60;65.70
79439;DHT22;68889;48.232;10.110;2023-07-13T15:03:38;25.60;66.10
79439;DHT22;68889;48.232;10.110;2023-07-13T15:06:09;25.80;63.60
79439;DHT22;68889;48.232;10.110;2023-07-13T15:08:35;25.90;57.60
79439;DHT22;68889;48.232;10.110;2023-07-13T15:11:00;25.60;64.40
79439;DHT22;68889;48.232;10.110;2023-07-13T15:13:26;25.70;57.90
79439;DHT22;68889;48.232;10.110;2023-07-13T15:15:51;25.70;57.80
79439;DHT22;68889;48.232;10.110;2023-07-13T15:18:19;25.70;57.90
79439;DHT22;68889;48.232;10.110;2023-07-13T15:20:45;25.80;59.10
79439;DHT22;68889;48.232;10.110;2023-07-13T15:23:11;26.00;57.80
79439;DHT22;68889;48.232;10.110;2023-07-13T15:25:36;26.20;59.80
79439;DHT22;68889;48.232;10.110;2023-07-13T15:28:02;26.70;59.50
79439;DHT22;68889;48.232;10.110;2023-07-13T15:30:40;27.20;54.80
79439;DHT22;68889;48.232;10.110;2023-07-13T15:35:42;27.30;55.20
79439;DHT22;68889;48.232;10.110;2023-07-13T15:38:13;27.50;55.70
79439;DHT22;68889;48.232;10.110;2023-07-13T15:40:38;27.30;55.50
79439;DHT22;68889;48.232;10.110;2023-07-13T15:43:09;27.10;57.60
79439;DHT22;68889;48.232;10.110;2023-07-13T15:45:35;27.40;56.30
79439;DHT22;68889;48.232;10.110;2023-07-13T15:48:01;27.60;54.70
79439;DHT22;68889;48.232;10.110;2023-07-13T15:50:42;28.00;57.70
79439;DHT22;68889;48.232;10.110;2023-07-13T15:53:08;28.20;55.50
79439;DHT22;68889;48.232;10.110;2023-07-13T15:55:36;28.00;52.80
79439;DHT22;68889;48.232;10.110;2023-07-13T15:58:02;28.10;54.40
79439;DHT22;68889;48.232;10.110;2023-07-13T16:00:28;28.20;55.70
79439;DHT22;68889;48.232;10.110;2023-07-13T16:02:53;27.90;53.30